sensor_id;sensor_type;location;lat;lon;timestamp;temperature;humidity
45319;DHT22;31057;48.498;32.260;2023-07-29T00:01:48;14.20;99.90
45319;DHT22;31057;48.498;32.260;2023-07-29T00:03:51;14.10;99.90
45319;DHT22;31057;48.498;32.260;2023-07-29T00:05:53;14.10;99.90
45319;DHT22;31057;48.498;32.260;2023-07-29T00:07:55;14.00;99.90
45319;DHT22;31057;48.498;32.260;2023-07-29T00:09:56;14.00;99.90
45319;DHT22;31057;48.498;32.260;2023-07-29T00:11:58;13.90;99.90
45319;DHT22;31057;48.498;32.260;2023-07-29T00:14:00;14.00;99.90
45319;DHT22;31057;48.498;32.260;2023-07-29T00:16:02;14.00;99.90
45319;DHT22;31057;48.498;32.260;2023-07-29T00:18:04;14.10;99.90
45319;DHT22;31057;48.498;32.260;2023-07-29T00:20:06;14.00;99.90
45319;DHT22;31057;48.498;32.260;2023-07-29T00:22:09;14.10;99.90
45319;DHT22;31057;48.498;32.260;2023-07-29T00:24:11;14.10;99.90
45319;DHT22;31057;48.498;32.260;2023-07-29T00:26:13;14.10;99.90
45319;DHT22;31057;48.498;32.260;2023-07-29T00:28:15;14.10;99.90
45319;DHT22;31057;48.498;32.260;2023-07-29T00:30:17;14.00;99.90
45319;DHT22;31057;48.498;32.260;2023-07-29T00:32:19;14.00;99.90
45319;DHT22;31057;48.498;32.260;2023-07-29T00:34:21;13.90;99.90
45319;DHT22;31057;48.498;32.260;2023-07-29T00:36:23;13.90;99.90
45319;DHT22;31057;48.498;32.260;2023-07-29T00:38:25;14.00;99.90
45319;DHT22;31057;48.498;32.260;2023-07-29T00:40:27;13.90;99.90
45319;DHT22;31057;48.498;32.260;2023-07-29T00:42:29;13.90;99.90
45319;DHT22;31057;48.498;32.260;2023-07-29T00:44:31;14.00;99.90
45319;DHT22;31057;48.498;32.260;2023-07-29T00:46:34;13.90;99.90
45319;DHT22;31057;48.498;32.260;2023-07-29T00:48:36;13.90;99.90
45319;DHT22;31057;48.498;32.260;2023-07-29T00:50:39;13.90;99.90
45319;DHT22;31057;48.498;32.260;2023-07-29T00:52:41;13.90;99.90
45319;DHT22;31057;48.498;32.260;2023-07-29T00:54:43;14.00;99.90
45319;DHT22;31057;48.498;32.260;2023-07-29T00:56:45;14.00;99.90
45319;DHT22;31057;48.498;32.260;2023-07-29T00:58:47;14.10;99.90
45319;DHT22;31057;48.498;32.260;2023-07-29T01:00:49;14.20;99.90
45319;DHT22;31057;48.498;32.260;2023-07-29T01:02:52;14.20;99.90
45319;DHT22;31057;48.498;32.260;2023-07-29T01:04:57;14.20;99.90
45319;DHT22;31057;48.498;32.260;2023-07-29T01:09:09;14.20;99.90
45319;DHT22;31057;48.498;32.260;2023-07-29T01:15:19;14.20;99.90
45319;DHT22;31057;48.498;32.260;2023-07-29T01:17:25;14.30;99.90
45319;DHT22;31057;48.498;32.260;2023-07-29T01:19:48;14.30;99.90
45319;DHT22;31057;48.498;32.260;2023-07-29T01:21:55;14.30;99.90
45319;DHT22;31057;48.498;32.260;2023-07-29T01:23:58;14.50;99.90
45319;DHT22;31057;48.498;32.260;2023-07-29T01:26:01;14.60;99.90
45319;DHT22;31057;48.498;32.260;2023-07-29T01:28:03;14.60;99.90
45319;DHT22;31057;48.498;32.260;2023-07-29T01:30:05;14.60;99.90
45319;DHT22;31057;48.498;32.260;2023-07-29T01:32:10;14.70;99.90
45319;DHT22;31057;48.498;32.260;2023-07-29T01:34:13;14.70;99.90
45319;DHT22;31057;48.498;32.260;2023-07-29T01:36:21;14.70;99.90
45319;DHT22;31057;48.498;32.260;2023-07-29T01:38:24;14.70;99.90
45319;DHT22;31057;48.498;32.260;2023-07-29T01:40:30;14.70;99.90
45319;DHT22;31057;48.498;32.260;2023-07-29T01:42:32;14.80;99.90
45319;DHT22;31057;48.498;32.260;2023-07-29T01:44:34;14.80;99.90
45319;DHT22;31057;48.498;32.260;2023-07-29T01:46:36;14.80;99.90
45319;DHT22;31057;48.498;32.260;2023-07-29T01:48:38;14.80;99.90
45319;DHT22;31057;48.498;32.260;2023-07-29T01:50:40;14.70;99.90
45319;DHT22;31057;48.498;32.260;2023-07-29T01:52:42;14.70;99.90
45319;DHT22;31057;48.498;32.260;2023-07-29T01:54:44;14.70;99.90
45319;DHT22;31057;48.498;32.260;2023-07-29T01:56:46;14.60;99.90
45319;DHT22;31057;48.498;32.260;2023-07-29T01:58:48;14.60;99.90
45319;DHT22;31057;48.498;32.260;2023-07-29T02:00:49;14.60;99.90
45319;DHT22;31057;48.498;32.260;2023-07-29T02:02:52;14.60;99.90
45319;DHT22;31057;48.498;32.260;2023-07-29T02:04:54;14.70;99.90
45319;DHT22;31057;48.498;32.260;2023-07-29T02:06:57;14.60;99.90
45319;DHT22;31057;48.498;32.260;2023-07-29T02:08:59;14.70;99.90
45319;DHT22;31057;48.498;32.260;2023-07-29T02:11:01;14.60;99.90
45319;DHT22;31057;48.498;32.260;2023-07-29T02:13:03;14.60;99.90
45319;DHT22;31057;48.498;32.260;2023-07-29T02:15:05;14.60;99.90
45319;DHT22;31057;48.498;32.260;2023-07-29T02:17:07;14.60;99.90
45319;DHT22;31057;48.498;32.260;2023-07-29T02:19:10;14.70;99.90
45319;DHT22;31057;48.498;32.260;2023-07-29T02:21:12;14.70;99.90
45319;DHT22;31057;48.498;32.260;2023-07-29T02:23:14;14.70;99.90
45319;DHT22;31057;48.498;32.260;2023-07-29T02:25:16;14.80;99.90
45319;DHT22;31057;48.498;32.260;2023-07-29T02:27:18;14.80;99.90
45319;DHT22;31057;48.498;32.260;2023-07-29T02:29:19;14.80;99.90
45319;DHT22;31057;48.498;32.260;2023-07-29T02:31:22;14.90;99.90
45319;DHT22;31057;48.498;32.260;2023-07-29T02:33:24;15.00;99.90
45319;DHT22;31057;48.498;32.260;2023-07-29T02:35:26;15.00;99.90
45319;DHT22;31057;48.498;32.260;2023-07-29T02:37:29;15.10;99.90
45319;DHT22;31057;48.498;32.260;2023-07-29T02:39:31;15.00;99.90
45319;DHT22;31057;48.498;32.260;2023-07-29T02:41:33;15.10;99.90
45319;DHT22;31057;48.498;32.260;2023-07-29T02:43:35;15.20;99.90
45319;DHT22;31057;48.498;32.260;2023-07-29T02:45:37;15.20;99.90
45319;DHT22;31057;48.498;32.260;2023-07-29T02:47:39;15.20;99.90
45319;DHT22;31057;48.498;32.260;2023-07-29T02:49:41;15.30;99.90
45319;DHT22;31057;48.498;32.260;2023-07-29T02:51:43;15.30;99.90
45319;DHT22;31057;48.498;32.260;2023-07-29T02:53:44;15.30;99.90
45319;DHT22;31057;48.498;32.260;2023-07-29T02:55:46;15.30;99.90
45319;DHT22;31057;48.498;32.260;2023-07-29T02:57:48;15.30;99.90
45319;DHT22;31057;48.498;32.260;2023-07-29T02:59:50;15.40;99.90
45319;DHT22;31057;48.498;32.260;2023-07-29T03:01:52;15.50;99.90
45319;DHT22;31057;48.498;32.260;2023-07-29T03:03:55;15.50;99.90
45319;DHT22;31057;48.498;32.260;2023-07-29T03:06:03;15.50;99.90
45319;DHT22;31057;48.498;32.260;2023-07-29T03:08:06;15.50;99.90
45319;DHT22;31057;48.498;32.260;2023-07-29T03:10:07;15.60;99.90
45319;DHT22;31057;48.498;32.260;2023-07-29T03:12:09;15.60;99.90
45319;DHT22;31057;48.498;32.260;2023-07-29T03:14:11;15.70;99.90
45319;DHT22;31057;48.498;32.260;2023-07-29T03:16:14;15.80;99.90
45319;DHT22;31057;48.498;32.260;2023-07-29T03:18:16;15.90;99.90
45319;DHT22;31057;48.498;32.260;2023-07-29T03:20:18;15.90;99.90
45319;DHT22;31057;48.498;32.260;2023-07-29T03:22:20;16.00;99.90
45319;DHT22;31057;48.498;32.260;2023-07-29T03:24:22;16.20;99.90
45319;DHT22;31057;48.498;32.260;2023-07-29T03:26:24;16.30;99.90
45319;DHT22;31057;48.498;32.260;2023-07-29T03:28:27;16.40;99.90
45319;DHT22;31057;48.498;32.260;2023-07-29T03:30:30;16.50;99.90
45319;DHT22;31057;48.498;32.260;2023-07-29T03:32:31;16.70;99.90
45319;DHT22;31057;48.498;32.260;2023-07-29T03:34:34;16.70;99.90
45319;DHT22;31057;48.498;32.260;2023-07-29T03:36:35;16.50;99.90
45319;DHT22;31057;48.498;32.260;2023-07-29T03:38:38;16.40;99.90
45319;DHT22;31057;48.498;32.260;2023-07-29T03:40:42;16.10;99.90
45319;DHT22;31057;48.498;32.260;2023-07-29T03:42:44;16.10;99.90
45319;DHT22;31057;48.498;32.260;2023-07-29T03:44:46;16.10;99.90
45319;DHT22;31057;48.498;32.260;2023-07-29T03:46:48;16.30;99.90
45319;DHT22;31057;48.498;32.260;2023-07-29T03:48:49;16.40;99.90
45319;DHT22;31057;48.498;32.260;2023-07-29T03:50:51;16.50;99.90
45319;DHT22;31057;48.498;32.260;2023-07-29T03:52:53;16.50;99.90
45319;DHT22;31057;48.498;32.260;2023-07-29T03:54:55;16.60;99.90
45319;DHT22;31057;48.498;32.260;2023-07-29T03:56:57;16.60;99.90
45319;DHT22;31057;48.498;32.260;2023-07-29T03:59:02;16.60;99.90
45319;DHT22;31057;48.498;32.260;2023-07-29T04:01:05;16.70;99.90
45319;DHT22;31057;48.498;32.260;2023-07-29T04:03:07;16.70;99.90
45319;DHT22;31057;48.498;32.260;2023-07-29T04:05:09;16.80;99.90
45319;DHT22;31057;48.498;32.260;2023-07-29T04:07:11;17.00;99.90
45319;DHT22;31057;48.498;32.260;2023-07-29T04:09:13;16.90;99.90
45319;DHT22;31057;48.498;32.260;2023-07-29T04:11:15;17.10;99.90
45319;DHT22;31057;48.498;32.260;2023-07-29T04:13:17;17.20;99.90
45319;DHT22;31057;48.498;32.260;2023-07-29T04:15:18;17.20;99.90
45319;DHT22;31057;48.498;32.260;2023-07-29T04:17:20;17.10;99.90
45319;DHT22;31057;48.498;32.260;2023-07-29T04:19:22;17.10;99.90
45319;DHT22;31057;48.498;32.260;2023-07-29T04:21:24;17.00;99.90
45319;DHT22;31057;48.498;32.260;2023-07-29T04:23:26;17.00;99.90
45319;DHT22;31057;48.498;32.260;2023-07-29T04:25:28;17.10;99.90
45319;DHT22;31057;48.498;32.260;2023-07-29T04:27:30;17.10;99.90
45319;DHT22;31057;48.498;32.260;2023-07-29T04:29:32;17.20;99.90
45319;DHT22;31057;48.498;32.260;2023-07-29T04:31:33;17.30;99.90
45319;DHT22;31057;48.498;32.260;2023-07-29T04:33:35;17.40;99.90
45319;DHT22;31057;48.498;32.260;2023-07-29T04:35:38;17.40;99.90
45319;DHT22;31057;48.498;32.260;2023-07-29T04:37:40;17.40;99.90
45319;DHT22;31057;48.498;32.260;2023-07-29T04:39:41;17.50;99.90
45319;DHT22;31057;48.498;32.260;2023-07-29T04:41:43;17.60;99.90
45319;DHT22;31057;48.498;32.260;2023-07-29T04:43:45;17.50;99.90
45319;DHT22;31057;48.498;32.260;2023-07-29T04:45:48;17.60;99.90
45319;DHT22;31057;48.498;32.260;2023-07-29T04:47:50;17.60;99.90
45319;DHT22;31057;48.498;32.260;2023-07-29T04:49:52;17.60;99.90
45319;DHT22;31057;48.498;32.260;2023-07-29T04:51:54;17.70;99.90
45319;DHT22;31057;48.498;32.260;2023-07-29T04:53:56;17.80;99.90
45319;DHT22;31057;48.498;32.260;2023-07-29T04:55:58;17.80;99.90
45319;DHT22;31057;48.498;32.260;2023-07-29T04:57:59;18.00;99.90
45319;DHT22;31057;48.498;32.260;2023-07-29T05:00:02;18.10;99.90
45319;DHT22;31057;48.498;32.260;2023-07-29T05:02:04;18.20;99.90
45319;DHT22;31057;48.498;32.260;2023-07-29T05:04:06;18.40;99.90
45319;DHT22;31057;48.498;32.260;2023-07-29T05:06:08;18.60;99.90
45319;DHT22;31057;48.498;32.260;2023-07-29T05:08:10;18.60;99.90
45319;DHT22;31057;48.498;32.260;2023-07-29T05:10:11;18.70;99.90
45319;DHT22;31057;48.498;32.260;2023-07-29T05:12:13;18.80;99.90
45319;DHT22;31057;48.498;32.260;2023-07-29T05:14:16;19.00;99.90
45319;DHT22;31057;48.498;32.260;2023-07-29T05:16:18;19.10;99.90
45319;DHT22;31057;48.498;32.260;2023-07-29T05:18:20;19.20;99.90
45319;DHT22;31057;48.498;32.260;2023-07-29T05:20:22;19.40;99.90
45319;DHT22;31057;48.498;32.260;2023-07-29T05:22:24;19.60;99.90
45319;DHT22;31057;48.498;32.260;2023-07-29T05:24:26;19.60;99.90
45319;DHT22;31057;48.498;32.260;2023-07-29T05:26:28;19.60;99.90
45319;DHT22;31057;48.498;32.260;2023-07-29T05:28:30;19.60;99.90
45319;DHT22;31057;48.498;32.260;2023-07-29T05:30:32;19.80;99.90
45319;DHT22;31057;48.498;32.260;2023-07-29T05:32:35;20.00;99.90
45319;DHT22;31057;48.498;32.260;2023-07-29T05:34:37;20.00;99.90
45319;DHT22;31057;48.498;32.260;2023-07-29T05:36:39;19.60;99.90
45319;DHT22;31057;48.498;32.260;2023-07-29T05:38:41;19.70;99.90
45319;DHT22;31057;48.498;32.260;2023-07-29T05:40:43;19.50;99.90
45319;DHT22;31057;48.498;32.260;2023-07-29T05:42:45;19.80;99.90
45319;DHT22;31057;48.498;32.260;2023-07-29T05:44:46;20.10;99.90
45319;DHT22;31057;48.498;32.260;2023-07-29T05:46:48;20.10;99.90
45319;DHT22;31057;48.498;32.260;2023-07-29T05:48:50;19.70;99.90
45319;DHT22;31057;48.498;32.260;2023-07-29T05:50:52;20.10;99.90
45319;DHT22;31057;48.498;32.260;2023-07-29T05:52:54;20.20;99.90
45319;DHT22;31057;48.498;32.260;2023-07-29T05:54:56;20.00;99.90
45319;DHT22;31057;48.498;32.260;2023-07-29T05:56:57;19.60;99.90
45319;DHT22;31057;48.498;32.260;2023-07-29T05:58:59;19.60;99.90
45319;DHT22;31057;48.498;32.260;2023-07-29T06:01:01;19.60;99.90
45319;DHT22;31057;48.498;32.260;2023-07-29T06:03:03;19.50;99.90
45319;DHT22;31057;48.498;32.260;2023-07-29T06:05:05;19.80;99.90
45319;DHT22;31057;48.498;32.260;2023-07-29T06:07:07;19.90;99.90
45319;DHT22;31057;48.498;32.260;2023-07-29T06:09:09;20.00;99.90
45319;DHT22;31057;48.498;32.260;2023-07-29T06:11:10;20.20;99.90
45319;DHT22;31057;48.498;32.260;2023-07-29T06:13:12;20.20;99.90
45319;DHT22;31057;48.498;32.260;2023-07-29T06:15:14;20.60;99.90
45319;DHT22;31057;48.498;32.260;2023-07-29T06:17:16;20.80;99.90
45319;DHT22;31057;48.498;32.260;2023-07-29T06:19:19;20.50;99.90
45319;DHT22;31057;48.498;32.260;2023-07-29T06:21:21;20.70;99.90
45319;DHT22;31057;48.498;32.260;2023-07-29T06:23:23;20.90;99.90
45319;DHT22;31057;48.498;32.260;2023-07-29T06:25:25;21.00;99.90
45319;DHT22;31057;48.498;32.260;2023-07-29T06:27:26;21.20;99.90
45319;DHT22;31057;48.498;32.260;2023-07-29T06:29:28;21.10;99.90
45319;DHT22;31057;48.498;32.260;2023-07-29T06:31:30;21.20;99.90
45319;DHT22;31057;48.498;32.260;2023-07-29T06:33:34;21.30;99.90
45319;DHT22;31057;48.498;32.260;2023-07-29T06:35:36;21.30;99.90
45319;DHT22;31057;48.498;32.260;2023-07-29T06:37:38;21.30;99.90
45319;DHT22;31057;48.498;32.260;2023-07-29T06:39:39;21.50;99.90
45319;DHT22;31057;48.498;32.260;2023-07-29T06:41:41;21.50;99.90
45319;DHT22;31057;48.498;32.260;2023-07-29T06:43:43;21.40;99.90
45319;DHT22;31057;48.498;32.260;2023-07-29T06:45:45;21.40;99.90
45319;DHT22;31057;48.498;32.260;2023-07-29T06:47:47;21.60;99.90
45319;DHT22;31057;48.498;32.260;2023-07-29T06:49:49;21.70;99.90
45319;DHT22;31057;48.498;32.260;2023-07-29T06:51:52;21.90;99.90
45319;DHT22;31057;48.498;32.260;2023-07-29T06:53:54;21.90;99.90
45319;DHT22;31057;48.498;32.260;2023-07-29T06:55:55;22.10;99.90
45319;DHT22;31057;48.498;32.260;2023-07-29T06:57:57;22.10;99.90
45319;DHT22;31057;48.498;32.260;2023-07-29T06:59:59;22.00;99.90
45319;DHT22;31057;48.498;32.260;2023-07-29T07:02:01;21.90;99.90
45319;DHT22;31057;48.498;32.260;2023-07-29T07:04:03;22.00;99.90
45319;DHT22;31057;48.498;32.260;2023-07-29T07:06:05;21.90;99.90
45319;DHT22;31057;48.498;32.260;2023-07-29T07:08:07;22.20;99.90
45319;DHT22;31057;48.498;32.260;2023-07-29T07:10:09;22.10;99.90
45319;DHT22;31057;48.498;32.260;2023-07-29T07:12:11;22.40;99.90
45319;DHT22;31057;48.498;32.260;2023-07-29T07:14:13;22.40;99.90
45319;DHT22;31057;48.498;32.260;2023-07-29T07:16:14;22.00;99.90
45319;DHT22;31057;48.498;32.260;2023-07-29T07:18:17;22.00;99.90
45319;DHT22;31057;48.498;32.260;2023-07-29T07:20:19;22.30;99.90
45319;DHT22;31057;48.498;32.260;2023-07-29T07:22:20;22.40;99.90
45319;DHT22;31057;48.498;32.260;2023-07-29T07:24:22;22.50;99.90
45319;DHT22;31057;48.498;32.260;2023-07-29T07:26:24;22.50;99.90
45319;DHT22;31057;48.498;32.260;2023-07-29T07:28:26;22.50;99.90
45319;DHT22;31057;48.498;32.260;2023-07-29T07:30:28;22.50;99.90
45319;DHT22;31057;48.498;32.260;2023-07-29T07:32:30;22.40;99.90
45319;DHT22;31057;48.498;32.260;2023-07-29T07:34:32;22.60;99.90
45319;DHT22;31057;48.498;32.260;2023-07-29T07:36:34;22.70;99.90
45319;DHT22;31057;48.498;32.260;2023-07-29T07:38:37;23.00;99.90
45319;DHT22;31057;48.498;32.260;2023-07-29T07:40:39;22.90;99.90
45319;DHT22;31057;48.498;32.260;2023-07-29T07:42:40;22.60;99.90
45319;DHT22;31057;48.498;32.260;2023-07-29T07:44:42;22.60;99.90
45319;DHT22;31057;48.498;32.260;2023-07-29T07:46:45;22.70;99.90
45319;DHT22;31057;48.498;32.260;2023-07-29T07:48:46;22.90;99.90
45319;DHT22;31057;48.498;32.260;2023-07-29T07:50:48;23.20;99.90
45319;DHT22;31057;48.498;32.260;2023-07-29T07:52:50;23.30;99.90
45319;DHT22;31057;48.498;32.260;2023-07-29T07:54:52;23.20;99.90
45319;DHT22;31057;48.498;32.260;2023-07-29T07:56:55;23.40;99.90
45319;DHT22;31057;48.498;32.260;2023-07-29T07:58:57;23.10;99.90
45319;DHT22;31057;48.498;32.260;2023-07-29T08:01:05;22.80;99.90
45319;DHT22;31057;48.498;32.260;2023-07-29T08:03:07;23.00;99.90
45319;DHT22;31057;48.498;32.260;2023-07-29T08:05:09;22.90;99.90
45319;DHT22;31057;48.498;32.260;2023-07-29T08:07:11;23.00;99.90
45319;DHT22;31057;48.498;32.260;2023-07-29T08:09:15;23.40;99.90
45319;DHT22;31057;48.498;32.260;2023-07-29T08:11:17;23.30;99.90
45319;DHT22;31057;48.498;32.260;2023-07-29T08:13:20;23.20;99.90
45319;DHT22;31057;48.498;32.260;2023-07-29T08:15:22;23.60;99.90
45319;DHT22;31057;48.498;32.260;2023-07-29T08:17:24;23.30;99.90
45319;DHT22;31057;48.498;32.260;2023-07-29T08:19:26;23.30;99.90
45319;DHT22;31057;48.498;32.260;2023-07-29T08:21:28;23.40;99.90
45319;DHT22;31057;48.498;32.260;2023-07-29T08:23:30;23.20;99.90
45319;DHT22;31057;48.498;32.260;2023-07-29T08:25:32;23.20;99.90
45319;DHT22;31057;48.498;32.260;2023-07-29T08:27:34;23.40;99.90
45319;DHT22;31057;48.498;32.260;2023-07-29T08:29:36;23.60;99.90
45319;DHT22;31057;48.498;32.260;2023-07-29T08:31:38;23.70;99.90
45319;DHT22;31057;48.498;32.260;2023-07-29T08:33:40;24.10;99.90
45319;DHT22;31057;48.498;32.260;2023-07-29T08:35:42;24.20;99.90
45319;DHT22;31057;48.498;32.260;2023-07-29T08:37:44;23.70;99.90
45319;DHT22;31057;48.498;32.260;2023-07-29T08:39:47;23.60;99.90
45319;DHT22;31057;48.498;32.260;2023-07-29T08:41:51;23.40;99.90
45319;DHT22;31057;48.498;32.260;2023-07-29T08:44:06;23.50;99.90
45319;DHT22;31057;48.498;32.260;2023-07-29T08:46:13;23.80;99.90
45319;DHT22;31057;48.498;32.260;2023-07-29T08:48:19;23.70;99.90
45319;DHT22;31057;48.498;32.260;2023-07-29T08:50:25;23.70;99.90
45319;DHT22;31057;48.498;32.260;2023-07-29T08:52:27;23.80;99.90
45319;DHT22;31057;48.498;32.260;2023-07-29T08:54:30;24.00;99.90
45319;DHT22;31057;48.498;32.260;2023-07-29T08:56:32;24.20;99.90
45319;DHT22;31057;48.498;32.260;2023-07-29T08:58:34;24.50;99.90
45319;DHT22;31057;48.498;32.260;2023-07-29T09:00:36;24.70;99.90
45319;DHT22;31057;48.498;32.260;2023-07-29T09:02:40;24.20;99.90
45319;DHT22;31057;48.498;32.260;2023-07-29T09:04:42;23.90;99.90
45319;DHT22;31057;48.498;32.260;2023-07-29T09:06:44;24.40;99.90
45319;DHT22;31057;48.498;32.260;2023-07-29T09:08:47;24.50;99.90
45319;DHT22;31057;48.498;32.260;2023-07-29T09:10:50;24.40;99.90
45319;DHT22;31057;48.498;32.260;2023-07-29T09:12:52;23.90;99.90
45319;DHT22;31057;48.498;32.260;2023-07-29T09:14:54;23.90;99.90
45319;DHT22;31057;48.498;32.260;2023-07-29T09:16:56;24.20;99.90
45319;DHT22;31057;48.498;32.260;2023-07-29T09:19:00;24.40;99.90
45319;DHT22;31057;48.498;32.260;2023-07-29T09:21:02;24.60;99.90
45319;DHT22;31057;48.498;32.260;2023-07-29T09:23:06;24.90;99.90
45319;DHT22;31057;48.498;32.260;2023-07-29T09:25:08;24.70;99.90
45319;DHT22;31057;48.498;32.260;2023-07-29T09:27:10;25.10;99.90
45319;DHT22;31057;48.498;32.260;2023-07-29T09:29:27;24.90;99.90
45319;DHT22;31057;48.498;32.260;2023-07-29T09:31:29;25.00;99.90
45319;DHT22;31057;48.498;32.260;2023-07-29T09:33:34;25.20;99.90
45319;DHT22;31057;48.498;32.260;2023-07-29T09:35:39;24.80;99.90
45319;DHT22;31057;48.498;32.260;2023-07-29T09:37:41;24.50;99.90
45319;DHT22;31057;48.498;32.260;2023-07-29T09:39:46;24.90;99.90
45319;DHT22;31057;48.498;32.260;2023-07-29T09:41:48;25.30;99.90
45319;DHT22;31057;48.498;32.260;2023-07-29T09:44:02;25.90;99.90
45319;DHT22;31057;48.498;32.260;2023-07-29T09:46:05;25.60;99.90
45319;DHT22;31057;48.498;32.260;2023-07-29T09:48:08;25.30;99.90
45319;DHT22;31057;48.498;32.260;2023-07-29T09:50:12;25.10;99.90
45319;DHT22;31057;48.498;32.260;2023-07-29T09:52:15;24.60;99.90
45319;DHT22;31057;48.498;32.260;2023-07-29T09:54:17;24.40;99.90
45319;DHT22;31057;48.498;32.260;2023-07-29T09:56:25;24.50;99.90
45319;DHT22;31057;48.498;32.260;2023-07-29T09:58:27;24.80;99.90
45319;DHT22;31057;48.498;32.260;2023-07-29T10:00:30;24.80;99.90
45319;DHT22;31057;48.498;32.260;2023-07-29T10:02:32;24.90;99.90
45319;DHT22;31057;48.498;32.260;2023-07-29T10:04:34;24.90;99.90
45319;DHT22;31057;48.498;32.260;2023-07-29T10:06:37;24.70;99.90
45319;DHT22;31057;48.498;32.260;2023-07-29T10:08:40;24.50;99.90
45319;DHT22;31057;48.498;32.260;2023-07-29T10:10:42;24.80;99.90
45319;DHT22;31057;48.498;32.260;2023-07-29T10:12:44;24.90;99.90
45319;DHT22;31057;48.498;32.260;2023-07-29T10:14:46;25.40;99.90
45319;DHT22;31057;48.498;32.260;2023-07-29T10:16:49;25.20;99.90
45319;DHT22;31057;48.498;32.260;2023-07-29T10:18:53;25.80;99.90
45319;DHT22;31057;48.498;32.260;2023-07-29T10:20:56;25.70;99.90
45319;DHT22;31057;48.498;32.260;2023-07-29T10:23:01;25.10;99.90
45319;DHT22;31057;48.498;32.260;2023-07-29T10:25:16;25.50;99.90
45319;DHT22;31057;48.498;32.260;2023-07-29T10:27:18;25.90;99.90
45319;DHT22;31057;48.498;32.260;2023-07-29T10:29:20;26.00;99.90
45319;DHT22;31057;48.498;32.260;2023-07-29T10:31:25;25.60;99.90
45319;DHT22;31057;48.498;32.260;2023-07-29T10:33:27;25.80;99.90
45319;DHT22;31057;48.498;32.260;2023-07-29T10:35:29;26.20;99.90
45319;DHT22;31057;48.498;32.260;2023-07-29T10:37:31;26.20;99.90
45319;DHT22;31057;48.498;32.260;2023-07-29T10:39:39;25.60;99.90
45319;DHT22;31057;48.498;32.260;2023-07-29T10:41:56;25.90;99.90
45319;DHT22;31057;48.498;32.260;2023-07-29T10:43:58;25.80;99.90
45319;DHT22;31057;48.498;32.260;2023-07-29T10:50:34;26.80;99.90
45319;DHT22;31057;48.498;32.260;2023-07-29T10:54:41;26.00;99.90
45319;DHT22;31057;48.498;32.260;2023-07-29T10:56:47;25.30;99.90
45319;DHT22;31057;48.498;32.260;2023-07-29T10:58:49;25.40;99.90
45319;DHT22;31057;48.498;32.260;2023-07-29T11:00:50;25.40;99.90
45319;DHT22;31057;48.498;32.260;2023-07-29T11:03:00;25.30;99.90
45319;DHT22;31057;48.498;32.260;2023-07-29T11:05:15;25.30;99.90
45319;DHT22;31057;48.498;32.260;2023-07-29T11:07:18;26.00;99.90
45319;DHT22;31057;48.498;32.260;2023-07-29T11:11:45;26.00;99.90
45319;DHT22;31057;48.498;32.260;2023-07-29T11:13:47;26.20;99.90
45319;DHT22;31057;48.498;32.260;2023-07-29T11:15:48;26.80;99.90
45319;DHT22;31057;48.498;32.260;2023-07-29T11:17:52;26.80;99.90
45319;DHT22;31057;48.498;32.260;2023-07-29T11:19:56;25.90;99.90
45319;DHT22;31057;48.498;32.260;2023-07-29T11:22:00;26.20;99.90
45319;DHT22;31057;48.498;32.260;2023-07-29T11:24:01;25.50;99.90
45319;DHT22;31057;48.498;32.260;2023-07-29T11:26:04;25.70;99.90
45319;DHT22;31057;48.498;32.260;2023-07-29T11:28:10;25.50;99.90
45319;DHT22;31057;48.498;32.260;2023-07-29T11:30:13;25.80;99.90
45319;DHT22;31057;48.498;32.260;2023-07-29T11:32:15;26.10;99.90
45319;DHT22;31057;48.498;32.260;2023-07-29T11:34:17;25.90;99.90
45319;DHT22;31057;48.498;32.260;2023-07-29T11:36:22;25.70;99.90
45319;DHT22;31057;48.498;32.260;2023-07-29T11:38:25;26.00;99.90
45319;DHT22;31057;48.498;32.260;2023-07-29T11:40:30;26.30;99.90
45319;DHT22;31057;48.498;32.260;2023-07-29T11:42:32;26.00;99.90
45319;DHT22;31057;48.498;32.260;2023-07-29T11:44:36;26.00;99.90
45319;DHT22;31057;48.498;32.260;2023-07-29T11:46:38;25.70;99.90
45319;DHT22;31057;48.498;32.260;2023-07-29T11:48:41;25.90;99.90
45319;DHT22;31057;48.498;32.260;2023-07-29T11:50:46;26.50;99.90
45319;DHT22;31057;48.498;32.260;2023-07-29T11:52:48;26.20;99.60
45319;DHT22;31057;48.498;32.260;2023-07-29T11:54:50;26.70;99.90
45319;DHT22;31057;48.498;32.260;2023-07-29T11:56:51;27.10;99.10
45319;DHT22;31057;48.498;32.260;2023-07-29T11:58:53;26.40;98.80
45319;DHT22;31057;48.498;32.260;2023-07-29T12:00:55;25.80;99.10
45319;DHT22;31057;48.498;32.260;2023-07-29T12:02:57;25.90;99.70
45319;DHT22;31057;48.498;32.260;2023-07-29T12:04:59;26.10;99.70
45319;DHT22;31057;48.498;32.260;2023-07-29T12:07:01;25.50;99.90
45319;DHT22;31057;48.498;32.260;2023-07-29T12:09:03;25.80;99.30
45319;DHT22;31057;48.498;32.260;2023-07-29T12:11:05;26.10;99.80
45319;DHT22;31057;48.498;32.260;2023-07-29T12:13:08;25.80;99.90
45319;DHT22;31057;48.498;32.260;2023-07-29T12:15:10;25.80;99.90
45319;DHT22;31057;48.498;32.260;2023-07-29T12:17:12;26.00;99.90
45319;DHT22;31057;48.498;32.260;2023-07-29T12:19:14;26.70;99.40
45319;DHT22;31057;48.498;32.260;2023-07-29T12:21:17;26.50;98.70
45319;DHT22;31057;48.498;32.260;2023-07-29T12:23:19;26.30;99.40
45319;DHT22;31057;48.498;32.260;2023-07-29T12:25:26;26.30;99.00
45319;DHT22;31057;48.498;32.260;2023-07-29T12:27:29;26.00;99.10
45319;DHT22;31057;48.498;32.260;2023-07-29T12:29:32;26.20;98.60
45319;DHT22;31057;48.498;32.260;2023-07-29T12:31:40;26.20;98.20
45319;DHT22;31057;48.498;32.260;2023-07-29T12:33:42;26.00;99.40
45319;DHT22;31057;48.498;32.260;2023-07-29T12:35:44;26.10;99.50
45319;DHT22;31057;48.498;32.260;2023-07-29T12:37:46;26.00;99.50
45319;DHT22;31057;48.498;32.260;2023-07-29T12:39:49;26.00;99.50
45319;DHT22;31057;48.498;32.260;2023-07-29T12:41:52;26.00;99.70
45319;DHT22;31057;48.498;32.260;2023-07-29T12:43:54;25.90;99.90
45319;DHT22;31057;48.498;32.260;2023-07-29T12:45:56;26.00;99.90
45319;DHT22;31057;48.498;32.260;2023-07-29T12:47:58;25.70;98.40
45319;DHT22;31057;48.498;32.260;2023-07-29T12:50:00;25.70;98.70
45319;DHT22;31057;48.498;32.260;2023-07-29T12:52:02;26.00;99.00
45319;DHT22;31057;48.498;32.260;2023-07-29T12:54:04;25.70;98.60
45319;DHT22;31057;48.498;32.260;2023-07-29T12:56:06;25.80;99.10
45319;DHT22;31057;48.498;32.260;2023-07-29T12:58:07;25.70;98.60